createdAt,value
2019-03-11T00:01:09.869Z,15.80
2019-03-11T00:03:40.507Z,24.20
2019-03-11T00:06:11.276Z,19.42
2019-03-11T00:08:41.910Z,20.35
2019-03-11T00:11:12.662Z,18.00
2019-03-11T00:13:43.430Z,16.60
2019-03-11T00:16:14.189Z,19.45
2019-03-11T00:18:44.838Z,14.73
2019-03-11T00:21:15.694Z,13.93
2019-03-11T00:23:46.449Z,19.62
2019-03-11T00:26:17.203Z,21.77
2019-03-11T00:28:47.841Z,21.00
2019-03-11T00:31:18.591Z,15.45
2019-03-11T00:33:50.387Z,17.77
2019-03-11T00:36:21.343Z,17.65
2019-03-11T00:38:52.096Z,18.40
2019-03-11T00:41:22.631Z,18.37
2019-03-11T00:43:53.502Z,18.85
2019-03-11T00:46:24.255Z,17.70
2019-03-11T00:48:54.889Z,15.65
2019-03-11T00:53:55.608Z,18.70
2019-03-11T00:56:26.229Z,21.50
2019-03-11T00:58:56.886Z,16.77
2019-03-11T01:01:27.756Z,18.05
2019-03-11T01:03:58.512Z,16.35
2019-03-11T01:06:29.264Z,16.30
2019-03-11T01:08:59.799Z,15.80
2019-03-11T01:11:30.653Z,17.80
2019-03-11T01:14:01.537Z,18.77
2019-03-11T01:16:32.280Z,20.05
2019-03-11T01:19:02.631Z,15.58
2019-03-11T01:24:03.119Z,18.45
2019-03-11T01:26:33.760Z,20.97
2019-03-11T01:29:04.616Z,17.42
2019-03-11T01:31:35.354Z,20.45
2019-03-11T01:34:06.925Z,20.25
2019-03-11T01:36:37.799Z,23.15
2019-03-11T01:39:08.432Z,20.85
2019-03-11T01:44:09.125Z,22.48
2019-03-11T01:46:39.786Z,25.92
2019-03-11T01:49:10.450Z,24.77
2019-03-11T01:51:41.285Z,23.73
2019-03-11T01:54:12.155Z,29.20
2019-03-11T01:56:42.894Z,30.80
2019-03-11T01:59:13.564Z,27.90
2019-03-11T02:01:44.398Z,22.25
2019-03-11T02:04:15.155Z,22.15
2019-03-11T02:06:45.922Z,15.15
2019-03-11T02:09:16.581Z,15.13
2019-03-11T02:11:47.432Z,15.23
2019-03-11T02:14:18.066Z,9.58
2019-03-11T02:19:18.668Z,12.68
2019-03-11T02:21:49.424Z,8.73
2019-03-11T02:24:20.073Z,9.38
2019-03-11T02:29:20.457Z,9.87
2019-03-11T02:31:51.120Z,7.90
2019-03-11T02:34:22.886Z,10.70
2019-03-11T02:36:53.435Z,8.20
2019-03-11T02:41:53.965Z,9.28
2019-03-11T02:44:24.572Z,6.15
2019-03-11T02:49:24.953Z,7.60
2019-03-11T02:54:25.422Z,7.72
2019-03-11T02:56:56.102Z,7.78
2019-03-11T03:02:04.045Z,7.70
2019-03-11T03:04:36.210Z,6.10
2019-03-11T03:07:06.818Z,6.75
2019-03-11T03:09:37.438Z,6.53
2019-03-11T03:14:38.013Z,8.18
2019-03-11T03:19:38.399Z,15.10
2019-03-11T03:22:09.032Z,6.50
2019-03-11T03:24:39.583Z,8.53
2019-03-11T03:27:10.130Z,9.83
2019-03-11T03:32:10.635Z,6.80
2019-03-11T03:34:42.317Z,6.53
2019-03-11T03:37:12.940Z,7.95
2019-03-11T03:39:43.508Z,7.35
2019-03-11T03:44:50.400Z,7.85
2019-03-11T03:47:21.088Z,6.28
2019-03-11T03:49:51.747Z,5.95
2019-03-11T03:52:22.271Z,6.35
2019-03-11T03:54:52.632Z,7.08
2019-03-11T03:57:23.282Z,9.70
2019-03-11T04:02:23.767Z,10.10
2019-03-11T04:04:54.424Z,7.05
2019-03-11T04:09:54.684Z,6.37
2019-03-11T04:14:55.070Z,5.50
2019-03-11T04:19:55.553Z,7.73
2019-03-11T04:24:56.058Z,5.53
2019-03-11T04:29:56.419Z,10.13
2019-03-11T04:34:58.026Z,12.00
2019-03-11T04:37:28.378Z,13.05
2019-03-11T04:39:58.822Z,9.93
2019-03-11T04:42:29.493Z,13.25
2019-03-11T04:47:29.873Z,13.73
2019-03-11T04:52:31.053Z,11.78
2019-03-11T04:57:34.626Z,12.57
2019-03-11T05:00:07.727Z,10.00
2019-03-11T05:02:38.282Z,11.38
2019-03-11T05:07:38.663Z,13.47
2019-03-11T05:12:40.170Z,11.65
2019-03-11T05:17:41.165Z,7.58
2019-03-11T05:20:14.157Z,10.05
2019-03-11T05:22:44.722Z,12.35
2019-03-11T05:27:45.184Z,9.65
2019-03-11T05:32:46.198Z,9.78
2019-03-11T05:37:47.181Z,13.00
2019-03-11T05:40:18.520Z,13.22
2019-03-11T05:42:48.909Z,18.62
2019-03-11T05:45:19.858Z,19.85
2019-03-11T05:50:20.048Z,15.63
2019-03-11T05:52:50.710Z,20.70
2019-03-11T05:55:21.348Z,27.45
2019-03-11T05:57:52.001Z,22.80
2019-03-11T06:00:30.428Z,26.42
2019-03-11T06:03:01.061Z,27.98
2019-03-11T06:05:31.932Z,23.47
2019-03-11T06:10:33.116Z,26.95
2019-03-11T06:13:03.889Z,25.05
2019-03-11T06:15:34.725Z,27.13
2019-03-11T06:18:05.487Z,32.53
2019-03-11T06:20:37.789Z,27.13
2019-03-11T06:23:09.953Z,27.35
2019-03-11T06:25:40.826Z,27.70
2019-03-11T06:28:11.682Z,27.90
2019-03-11T06:30:42.435Z,27.13
2019-03-11T06:33:12.883Z,31.02
2019-03-11T06:38:13.367Z,17.50
2019-03-11T06:43:15.474Z,25.10
2019-03-11T06:48:16.081Z,30.27
2019-03-11T06:50:46.830Z,24.02
2019-03-11T06:53:17.469Z,21.40
2019-03-11T06:58:18.091Z,19.85
2019-03-11T07:00:49.335Z,21.33
2019-03-11T07:03:19.577Z,21.85
2019-03-11T07:08:20.065Z,22.23
2019-03-11T07:10:50.920Z,19.32
2019-03-11T07:13:21.570Z,21.97
2019-03-11T07:15:52.221Z,23.90
2019-03-11T07:20:52.704Z,20.65
2019-03-11T07:25:53.072Z,16.10
2019-03-11T07:28:23.737Z,21.20
2019-03-11T07:33:24.208Z,18.48
2019-03-11T07:35:55.797Z,20.82
2019-03-11T07:38:26.572Z,13.90
2019-03-11T07:40:57.081Z,13.95
2019-03-11T07:45:57.567Z,23.03
2019-03-11T07:50:58.073Z,13.57
2019-03-11T07:53:28.619Z,18.12
2019-03-11T07:55:59.270Z,18.92
2019-03-11T07:58:29.922Z,19.40
2019-03-11T08:01:00.557Z,18.62
2019-03-11T08:03:31.231Z,16.62
2019-03-11T08:08:31.610Z,28.60
2019-03-11T08:13:31.975Z,16.90
2019-03-11T08:18:35.227Z,18.00
2019-03-11T08:21:04.745Z,16.90
2019-03-11T08:23:35.905Z,13.43
2019-03-11T08:26:06.476Z,13.70
2019-03-11T08:28:37.112Z,14.53
2019-03-11T08:31:07.666Z,16.87
2019-03-11T08:36:09.165Z,9.43
2019-03-11T08:38:39.826Z,16.27
2019-03-11T08:43:40.427Z,10.75
2019-03-11T08:48:40.786Z,8.08
2019-03-11T08:53:41.392Z,10.85
2019-03-11T08:56:12.049Z,10.08
2019-03-11T09:01:12.425Z,10.13
2019-03-11T09:06:12.995Z,9.25
2019-03-11T09:08:43.666Z,11.60
2019-03-11T09:11:14.195Z,9.60
2019-03-11T09:16:14.598Z,5.23
2019-03-11T09:21:15.187Z,10.90
2019-03-11T09:23:45.818Z,5.25
2019-03-11T09:28:46.323Z,10.28
2019-03-11T09:33:46.913Z,11.73
2019-03-11T09:38:47.596Z,9.53
2019-03-11T09:43:48.081Z,10.35
2019-03-11T09:48:48.551Z,8.80
2019-03-11T09:53:49.038Z,11.65
2019-03-11T09:58:49.522Z,11.13
2019-03-11T10:01:20.398Z,20.27
2019-03-11T10:03:51.134Z,12.82
2019-03-11T10:06:21.905Z,18.98
2019-03-11T10:08:52.433Z,10.40
2019-03-11T10:11:23.291Z,14.30
2019-03-11T10:13:54.758Z,7.92
2019-03-11T10:18:55.246Z,10.68
2019-03-11T10:23:55.627Z,19.93
2019-03-11T10:28:56.216Z,18.07
2019-03-11T10:31:27.017Z,25.68
2019-03-11T10:33:57.620Z,18.30
2019-03-11T10:36:29.518Z,16.07
2019-03-11T10:39:00.354Z,14.25
2019-03-11T10:41:31.127Z,17.77
2019-03-11T10:44:01.761Z,12.53
2019-03-11T10:49:02.244Z,14.00
2019-03-11T10:51:32.799Z,11.97
2019-03-11T10:56:33.280Z,13.38
2019-03-11T10:59:04.052Z,13.43
2019-03-11T11:01:34.896Z,10.80
2019-03-11T11:04:05.644Z,17.27
2019-03-11T11:06:36.401Z,12.10
2019-03-11T11:09:07.272Z,11.60
2019-03-11T11:11:38.111Z,15.05
2019-03-11T11:14:08.985Z,14.73
2019-03-11T11:16:39.635Z,14.20
2019-03-11T11:19:10.374Z,14.87
2019-03-11T11:21:41.226Z,15.05
2019-03-11T11:24:11.999Z,16.85
2019-03-11T11:26:42.658Z,16.00
2019-03-11T11:29:13.505Z,14.20
2019-03-11T11:31:44.259Z,18.92
2019-03-11T11:34:14.895Z,18.57
2019-03-11T11:36:46.688Z,14.07
2019-03-11T11:39:17.526Z,12.98
2019-03-11T11:41:48.195Z,23.62
2019-03-11T11:44:18.932Z,18.27
2019-03-11T11:46:50.426Z,19.32
2019-03-11T11:49:21.157Z,14.20
2019-03-11T11:51:52.029Z,20.43
2019-03-11T11:54:22.789Z,40.45
2019-03-11T11:56:53.436Z,44.67
2019-03-11T11:59:24.173Z,44.90
2019-03-11T12:02:03.710Z,15.15
2019-03-11T12:04:28.648Z,9.28
2019-03-11T12:09:29.049Z,16.32
2019-03-11T12:11:59.783Z,15.60
2019-03-11T12:14:30.442Z,20.35
2019-03-11T12:17:01.298Z,35.13
2019-03-11T12:19:32.062Z,36.25
2019-03-11T12:22:02.814Z,66.50
2019-03-11T12:24:33.348Z,33.45
2019-03-11T12:27:04.221Z,23.80
2019-03-11T12:29:34.973Z,32.08
2019-03-11T12:32:05.711Z,19.48
2019-03-11T12:34:36.260Z,37.35
2019-03-11T12:37:08.055Z,17.85
2019-03-11T12:39:39.011Z,9.78
2019-03-11T12:42:09.661Z,6.95
2019-03-11T12:44:40.313Z,6.70
2019-03-11T12:47:11.159Z,11.18
2019-03-11T12:49:41.808Z,29.48
2019-03-11T12:52:12.456Z,9.13
2019-03-11T12:54:43.007Z,19.17
2019-03-11T12:57:13.861Z,12.20
2019-03-11T12:59:47.141Z,15.88
2019-03-11T13:02:18.132Z,16.75
2019-03-11T13:04:48.903Z,25.65
2019-03-11T13:07:19.575Z,21.30
2019-03-11T13:09:50.292Z,40.65
2019-03-11T13:12:21.152Z,42.20
2019-03-11T13:14:51.803Z,30.37
2019-03-11T13:19:52.402Z,19.05
2019-03-11T13:22:23.041Z,46.35
2019-03-11T13:24:53.690Z,12.03
2019-03-11T13:27:24.547Z,25.57
2019-03-11T13:29:55.423Z,37.80
2019-03-11T13:35:08.386Z,12.95
2019-03-11T13:37:39.033Z,20.37
2019-03-11T13:40:11.098Z,17.80
2019-03-11T13:42:41.567Z,18.23
2019-03-11T13:45:14.495Z,41.55
2019-03-11T13:47:45.015Z,38.13
2019-03-11T13:50:16.633Z,43.58
2019-03-11T13:52:47.036Z,30.32
2019-03-11T13:55:18.079Z,20.80
2019-03-11T13:57:48.439Z,9.90
2019-03-11T14:00:21.024Z,45.75
2019-03-11T14:02:51.588Z,8.20
2019-03-11T14:05:22.120Z,38.25
2019-03-11T14:07:52.870Z,31.20
2019-03-11T14:10:23.418Z,29.85
2019-03-11T14:12:54.277Z,29.60
2019-03-11T14:15:25.031Z,7.83
2019-03-11T14:20:26.333Z,8.73
2019-03-11T14:22:57.103Z,6.15
2019-03-11T14:25:27.760Z,12.93
2019-03-11T14:27:58.612Z,7.17
2019-03-11T14:30:29.262Z,10.00
2019-03-11T14:32:59.896Z,17.37
2019-03-11T14:35:30.688Z,8.15
2019-03-11T14:40:31.562Z,7.87
2019-03-11T14:43:02.095Z,5.22
2019-03-11T14:48:02.683Z,15.65
2019-03-11T14:50:33.334Z,24.95
2019-03-11T14:53:03.988Z,55.63
2019-03-11T14:55:34.755Z,45.05
2019-03-11T14:58:05.288Z,18.87
2019-03-11T15:03:05.892Z,8.38
2019-03-11T15:05:36.423Z,15.23
2019-03-11T15:10:36.925Z,20.60
2019-03-11T15:15:37.408Z,3.47
2019-03-11T15:20:39.643Z,25.08
2019-03-11T15:23:19.924Z,13.15
2019-03-11T15:25:42.257Z,8.75
2019-03-11T15:30:42.221Z,5.87
2019-03-11T15:35:42.726Z,2.70
2019-03-11T15:38:14.295Z,3.85
2019-03-11T15:40:45.156Z,5.30
2019-03-11T15:43:15.689Z,6.47
2019-03-11T15:48:16.374Z,4.70
2019-03-11T15:50:47.043Z,2.33
2019-03-11T15:53:17.578Z,4.08
2019-03-11T15:55:48.166Z,4.35
2019-03-11T16:00:48.608Z,3.27
2019-03-11T16:05:48.991Z,1.97
2019-03-11T16:08:19.660Z,1.95
2019-03-11T16:13:20.246Z,5.60
2019-03-11T16:18:20.737Z,3.58
2019-03-11T16:23:21.219Z,23.57
2019-03-11T16:28:21.604Z,1.93
2019-03-11T16:30:53.775Z,8.95
2019-03-11T16:33:24.335Z,7.25
2019-03-11T16:38:24.805Z,4.83
2019-03-11T16:43:24.982Z,4.97
2019-03-11T16:48:25.586Z,3.87
2019-03-11T16:50:56.240Z,4.45
2019-03-11T16:53:26.769Z,3.22
2019-03-11T16:58:27.378Z,5.58
2019-03-11T17:01:03.121Z,2.02
2019-03-11T17:03:33.672Z,4.55
2019-03-11T17:08:34.280Z,4.58
2019-03-11T17:11:04.825Z,5.65
2019-03-11T17:16:05.417Z,4.08
2019-03-11T17:18:35.946Z,4.37
2019-03-11T17:23:36.429Z,5.47
2019-03-11T17:26:06.981Z,4.47
2019-03-11T17:31:07.382Z,3.50
2019-03-11T17:33:38.015Z,4.12
2019-03-11T17:36:08.460Z,4.12
2019-03-11T17:41:09.051Z,5.92
2019-03-11T17:43:39.485Z,6.33
2019-03-11T17:46:10.171Z,5.08
2019-03-11T17:48:40.801Z,4.60
2019-03-11T17:51:11.466Z,4.55
2019-03-11T17:56:11.938Z,2.52
2019-03-11T18:01:12.982Z,2.90
2019-03-11T18:03:45.142Z,4.85
2019-03-11T18:06:15.774Z,3.00
2019-03-11T18:08:46.452Z,3.58
2019-03-11T18:11:17.092Z,4.17
2019-03-11T18:13:47.725Z,2.30
2019-03-11T18:16:19.929Z,3.45
2019-03-11T18:18:50.476Z,3.67
2019-03-11T18:21:21.010Z,3.42
2019-03-11T18:26:23.353Z,6.12
2019-03-11T18:28:53.998Z,6.10
2019-03-11T18:31:24.655Z,9.13
2019-03-11T18:33:55.325Z,9.65
2019-03-11T18:38:56.823Z,4.75
2019-03-11T18:41:27.710Z,5.42
2019-03-11T18:43:58.428Z,5.10
2019-03-11T18:48:58.829Z,5.53
2019-03-11T18:53:59.491Z,8.55
2019-03-11T18:56:30.162Z,12.20
2019-03-11T18:59:00.904Z,6.42
2019-03-11T19:04:01.377Z,6.12
2019-03-11T19:09:01.873Z,4.33
2019-03-11T19:14:02.484Z,4.00
2019-03-11T19:16:33.098Z,6.78
2019-03-11T19:19:03.373Z,3.72
2019-03-11T19:24:04.242Z,11.20
2019-03-11T19:26:35.055Z,11.55
2019-03-11T19:29:06.082Z,12.75
2019-03-11T19:31:36.722Z,21.93
2019-03-11T19:34:07.273Z,19.48
2019-03-11T19:36:37.938Z,21.45
2019-03-11T19:39:11.732Z,13.50
2019-03-11T19:41:42.940Z,10.20
2019-03-11T19:44:13.770Z,10.32
2019-03-11T19:46:44.415Z,7.80
2019-03-11T19:49:16.506Z,10.80
2019-03-11T19:51:47.356Z,10.23
2019-03-11T19:54:18.131Z,10.95
2019-03-11T19:56:49.095Z,8.55
2019-03-11T19:59:20.159Z,9.13
2019-03-11T20:04:21.086Z,6.20
2019-03-11T20:06:51.380Z,9.23
2019-03-11T20:11:54.060Z,5.65
2019-03-11T20:14:24.337Z,5.22
2019-03-11T20:19:24.805Z,9.03
2019-03-11T20:24:25.491Z,3.12
2019-03-11T20:26:56.335Z,4.05
2019-03-11T20:29:27.042Z,4.87
2019-03-11T20:31:57.677Z,4.75
2019-03-11T20:36:58.268Z,7.15
2019-03-11T20:41:58.771Z,7.57
2019-03-11T20:44:29.517Z,4.03
2019-03-11T20:47:00.152Z,10.03
2019-03-11T20:49:30.863Z,7.97
2019-03-11T20:52:01.569Z,8.98
2019-03-11T20:54:32.338Z,12.45
2019-03-11T20:57:03.219Z,9.05
2019-03-11T20:59:33.899Z,7.85
2019-03-11T21:02:04.552Z,16.60
2019-03-11T21:07:05.061Z,11.77
2019-03-11T21:09:35.932Z,14.07
2019-03-11T21:12:06.892Z,13.28
2019-03-11T21:14:37.652Z,11.50
2019-03-11T21:17:08.405Z,9.05
2019-03-11T21:22:09.065Z,15.28
2019-03-11T21:24:39.822Z,13.53
2019-03-11T21:27:10.717Z,10.15
2019-03-11T21:29:41.524Z,10.45
2019-03-11T21:32:12.277Z,8.98
2019-03-11T21:37:15.027Z,8.83
2019-03-11T21:39:46.120Z,8.38
2019-03-11T21:42:16.514Z,5.70
2019-03-11T21:44:47.371Z,3.62
2019-03-11T21:47:18.167Z,5.10
2019-03-11T21:49:48.820Z,5.45
2019-03-11T21:52:19.488Z,3.75
2019-03-11T21:54:50.095Z,3.70
2019-03-11T21:59:50.647Z,5.33
2019-03-11T22:02:21.418Z,2.47
2019-03-11T22:04:51.969Z,2.35
2019-03-11T22:07:22.534Z,2.75
2019-03-11T22:09:52.964Z,1.55
2019-03-11T22:12:23.530Z,2.50
2019-03-11T22:17:23.915Z,3.35
2019-03-11T22:19:54.464Z,4.87
2019-03-11T22:24:54.827Z,2.50
2019-03-11T22:27:25.393Z,2.58
2019-03-11T22:29:55.829Z,3.92
2019-03-11T22:32:26.393Z,4.20
2019-03-11T22:34:56.925Z,6.72
2019-03-11T22:39:59.042Z,3.47
2019-03-11T22:42:29.693Z,3.20
2019-03-11T22:47:30.280Z,2.92
2019-03-11T22:52:30.769Z,3.08
2019-03-11T22:55:01.428Z,3.72
2019-03-11T23:00:01.808Z,4.17
2019-03-11T23:02:40.321Z,4.12
2019-03-11T23:05:05.064Z,4.10
2019-03-11T23:07:35.291Z,4.37
2019-03-11T23:12:36.205Z,4.08
2019-03-11T23:17:36.977Z,4.92
2019-03-11T23:22:38.505Z,3.42
2019-03-11T23:27:38.988Z,2.70
2019-03-11T23:32:40.888Z,2.27
2019-03-11T23:35:11.556Z,2.52
2019-03-11T23:37:42.308Z,3.00
2019-03-11T23:42:43.390Z,2.95
2019-03-11T23:47:43.875Z,2.62
2019-03-11T23:52:44.155Z,2.62
2019-03-11T23:55:14.708Z,2.05
